x

North Huron - 32nm Northeast Of Alpena, Mi (45003) Wave Buoy

1:50am - Tue 21st Oct 2014 All times are CDT. -5 hours from GMT.

  • Sig Wave height 4.6ft
  • Swell Direction
  • Peak Period 5s
  • Average Period 4s
  • Wind
    25mph, 29mph gusts
  • Sea Temp 53°f
  • Air Temp 46°f
  • Sea Pressure 1013mb
  • North Huron - 32nm Northeast Of Alpena, Mi
  • North Huron - 32nm Northeast Of Alpena, Mi

More Historic Weather Station data

Upgrade to MSW Pro to gain access to the past 30 days of data for over 8000 Wavebouys and Weather Stations around the globe.

Join Pro

Comparision Forecast

View Surf forecast
   
Tue 10/21 1:50am 4.5ft 5s 4s 25 29 mph 1013mb 53f 46f
12:50am 4.5ft 5s 4s 22 27 mph 1012.5mb 53f 47f
Mon 10/20 11:50pm 4.5ft 4s 4s 25 29 mph 1012.1mb 53f 47f
10:50pm 4ft 4s 4s 22 27 mph 1011.6mb 53f 48f
9:50pm 3ft 4s 4s 22 27 mph 1010.9mb 53f 49f
8:50pm 3ft 5s 4s 20 22 mph 1010.5mb 53f 48f
7:50pm 3ft 5s 4s 16 18 mph 1009.9mb 53f 50f
6:50pm 3ft 5s 4s 18 20 mph 1009.5mb 53f 50f
5:50pm 2.5ft 4s 4s 18 20 mph 1008.8mb 53f 51f
4:50pm 2.5ft 4s 4s 18 20 mph 1008.2mb 53f 51f
3:50pm 2.5ft 4s 4s 18 22 mph 1007.5mb 53f 51f
2:50pm 2.5ft 6s 4s 16 18 mph 1007.2mb 53f 51f
1:50pm 2.5ft 5s 4s 16 18 mph 1006.9mb 53f 51f
12:50pm 2.5ft 5s 4s 13 16 mph 1006.9mb 53f 51f
11:50am 2.5ft 5s 4s 11 13 mph 1007.4mb 53f 51f
10:50am 2.5ft 5s 4s 11 13 mph 1007.5mb 53f 50f
9:50am 2.5ft 5s 4s 13 16 mph 1007.7mb 53f 50f
8:50am 2.5ft 5s 4s 13 16 mph 1007.6mb 53f 49f
7:50am 2.5ft 5s 4s 13 16 mph 1007.4mb 53f 49f
6:50am 3ft 5s 4s 13 16 mph 1007.4mb 53f 49f
5:50am 3.5ft 6s 4s 16 18 mph 1007.6mb 53f 48f
4:50am 3.5ft 6s 4s 16 18 mph 1008mb 53f 49f
3:50am 3.5ft 5s 4s 16 18 mph 1008.3mb 53f 50f
2:50am 3ft 5s 4s 18 22 mph 1008.9mb 53f 49f
1:50am 2.5ft 5s 4s 20 22 mph 1009.4mb 53f 50f
12:50am 2.5ft 5s 4s 13 16 mph 1010.2mb 53f 49f
Sun 10/19 11:50pm 2.5ft 5s  -  16 20 mph 1010.9mb 53f 50f
10:50pm 3.5ft 5s 4s 16 18 mph 1012.2mb 53f 49f
9:50pm 3ft 5s 4s 20 25 mph 1012.6mb 53f 50f
8:50pm 2.5ft 4s 3s 18 20 mph 1012.9mb 53f 50f
7:50pm 2ft 4s 3s 18 20 mph 1013.4mb 53f 49f
6:50pm 1.6ft 3s 3s 18 20 mph 1013.9mb 53f 47f
5:50pm 1.3ft 3s 3s 18 20 mph 1015.1mb 53f 45f
4:50pm 0.7ft  -  3s 13 18 mph 1015.9mb 53f 43f
3:50pm 0.7ft  -  3s 7 11 mph 1016.8mb 53f 42f
2:50pm 0.7ft  -  3s 4 7 mph 1017.5mb 53f 42f
1:50pm 0.7ft  -  3s 2 4 mph 1018.1mb 53f 42f
12:50pm 1ft 3s 3s 7 11 mph 1018.9mb 53f 41f
11:50am 1ft 3s 3s 9 13 mph 1019.8mb 53f 41f
10:50am 0.7ft  -  3s 11 13 mph 1020mb 53f 41f
9:50am 1ft 3s 3s 7 9 mph 1020.3mb 53f 40f
8:50am 1ft 4s 3s 9 13 mph 1020.5mb 53f 40f
7:50am 1ft 4s 3s 7 11 mph 1020.5mb 53f 39f
6:50am 1.3ft 4s 3s 9 13 mph 1020.3mb 53f 40f
5:50am 1.3ft 5s 3s 7 11 mph 1020.3mb 53f 39f
4:50am 1.6ft 5s 4s 7 9 mph 1020.1mb 53f 39f
3:50am 2ft 5s 4s 7 11 mph 1020.2mb 53f 38f
2:50am 2ft 5s 4s 9 11 mph 1020.2mb 53f 38f
1:50am 2.5ft 6s 4s 7 13 mph 1020mb 53f 38f
12:50am 2.5ft 5s 4s 11 13 mph 1019.8mb 53f 39f
Sat 10/18 11:50pm 3.5ft 6s 4s 13 18 mph 1019.3mb 53f 39f
10:50pm 3.5ft 4s 4s 16 20 mph 1019.6mb 53f 39f
9:50pm 3.5ft 4s 4s 18 22 mph 1019.5mb 53f 40f
8:50pm 3.5ft 4s 4s 20 22 mph 1018.9mb 53f 41f
7:50pm 4ft 5s 4s 22 29 mph 1018.2mb 53f 42f
6:50pm 3.5ft 5s 4s 22 27 mph 1017.6mb 53f 44f
5:50pm 4ft 5s 4s 20 27 mph 1016.8mb 53f 44f
4:50pm 4ft 5s 4s 22 29 mph 1016mb 53f 45f
3:50pm 4.5ft 5s 4s 20 27 mph 1015.4mb 53f 44f
2:50pm 5ft 5s 4s 22 27 mph 1014.9mb 53f 44f
1:50pm 5ft 5s 4s 22 27 mph 1014.4mb 53f 43f
12:50pm 4.5ft 5s 4s 20 22 mph 1014.2mb 53f 43f
11:50am 5ft 6s 5s 22 27 mph 1013.6mb 53f 42f
10:50am 6ft 5s 5s 25 29 mph 1012.5mb 53f 42f
9:50am 6ft 6s 5s 25 29 mph 1011.3mb 53f 43f
8:50am 6.5ft 6s 5s 27 31 mph 1010.6mb 53f 43f
7:50am 6ft 6s 5s 29 36 mph 1009.2mb 53f 43f
6:50am 6.5ft 6s 5s 29 34 mph 1008mb 54f 42f
5:50am 6.5ft 6s 5s 29 36 mph 1006.7mb 54f 43f
4:50am 6.5ft 6s 5s 29 36 mph 1005.5mb 54f 44f
3:50am 6ft 7s 5s 31 36 mph 1004.1mb 54f 44f
2:50am 5.5ft 6s 5s 27 31 mph 1003.2mb 54f 45f
1:50am 5ft 6s 5s 27 34 mph 1002.3mb 54f 46f
12:50am 5.5ft 6s 5s 25 31 mph 1001.5mb 54f 46f
Fri 10/17 11:50pm 5.5ft 6s 5s 27 31 mph 1000.6mb 54f 46f
10:50pm 5ft 5s 4s 25 31 mph 1000mb 54f 47f
9:50pm 4.5ft 5s 4s 25 29 mph 999.1mb 54f 48f
8:50pm 3.5ft 5s 4s 25 29 mph 998.1mb 54f 49f
7:50pm 3.5ft 4s 4s 20 22 mph 996.9mb 55f 51f
6:50pm 2.5ft 4s 3s 20 22 mph 996.8mb 55f 52f
5:50pm 2.5ft 3s 3s 18 20 mph 996.3mb 55f 52f
4:50pm 2ft 5s 3s 16 18 mph 995.7mb 55f 52f
3:50pm 1.6ft 4s 3s 9 11 mph 995.3mb 55f 52f
2:50pm 1.6ft 4s 3s 13 16 mph 994.8mb 55f 54f
1:50pm 2ft 4s 3s 13 16 mph 994.7mb 55f 54f
12:50pm 1.6ft 4s 3s 11 13 mph 995.3mb 55f 54f
11:50am 1.6ft 4s 3s 9
mph
996.2mb 55f 53f
10:50am 1.6ft 3s 3s 11 13 mph 996.6mb 55f 53f
9:50am 1.6ft 3s 3s 11 13 mph 996.9mb 55f 53f
8:50am 1.6ft 3s 3s 16 18 mph 997.2mb 55f 53f